| time (UTC) | temp F | wind direction | speed MPH | gust MPH | rain 1hr in | rain 24hr in | rain mn in | humidity % | barometer mb |
| 20260507040008 | 40 | 182 | 0.0 | 0.0 | 0.00 | 0.55 | 0.50 | 100 | 1008.1 |
| 20260507034506 | 41 | 281 | 0.0 | 0.0 | 0.00 | 0.55 | 0.50 | 100 | 1008.3 |
| 20260507033005 | 41 | 281 | 0.0 | 2.0 | 0.00 | 0.55 | 0.50 | 100 | 1008.3 |
| 20260507031504 | 41 | 277 | 0.0 | 0.0 | 0.00 | 0.55 | 0.50 | 100 | 1008.3 |
| 20260507030004 | 41 | 277 | 0.0 | 0.0 | 0.00 | 0.59 | 0.50 | 100 | 1008.1 |
| 20260507024502 | 41 | 277 | 0.0 | 0.0 | 0.00 | 0.59 | 0.50 | 100 | 1008.2 |
| 20260507023003 | 42 | 277 | 0.0 | 1.0 | 0.00 | 0.59 | 0.50 | 100 | 1008.4 |
| 20260507021501 | 42 | 277 | 0.0 | 1.0 | 0.00 | 0.59 | 0.50 | 100 | 1008.6 |
| 20260507020001 | 42 | 279 | 0.0 | 3.0 | 0.00 | 0.59 | 0.50 | 100 | 1008.8 |
| 20260507014603 | 42 | 348 | 0.0 | 0.0 | 0.00 | 0.59 | 0.50 | 100 | 1008.5 |
| 20260507013103 | 42 | 348 | 0.0 | 0.0 | 0.00 | 0.59 | 0.50 | 99 | 1008.4 |
| 20260507011600 | 42 | 348 | 0.0 | 0.0 | 0.00 | 0.59 | 0.50 | 99 | 1008.4 |
| 20260507010059 | 42 | 348 | 0.0 | 0.0 | 0.00 | 0.59 | 0.50 | 98 | 1008.3 |
| 20260507004600 | 42 | 348 | 0.0 | 0.0 | 0.00 | 0.59 | 0.50 | 98 | 1008.0 |
| 20260507003057 | 43 | 348 | 0.0 | 0.0 | 0.00 | 0.59 | 0.50 | 97 | 1007.9 |
| 20260507001600 | 43 | 348 | 0.0 | 0.0 | 0.00 | 0.59 | 0.50 | 97 | 1008.0 |
| 20260507000056 | 44 | 348 | 0.0 | 0.0 | 0.00 | 0.59 | 0.50 | 96 | 1008.0 |
| 20260506234557 | 44 | 348 | 0.0 | 0.0 | 0.00 | 0.59 | 0.50 | 96 | 1007.7 |
| 20260506233055 | 45 | 348 | 0.0 | 0.0 | 0.00 | 0.59 | 0.50 | 94 | 1007.6 |
| 20260506231554 | 45 | 348 | 0.0 | 0.0 | 0.00 | 0.59 | 0.50 | 93 | 1007.5 |
| 20260506230055 | 45 | 348 | 0.0 | 0.0 | 0.00 | 0.59 | 0.50 | 94 | 1007.5 |
| 20260506224603 | 45 | 348 | 0.0 | 0.0 | 0.00 | 0.59 | 0.50 | 92 | 1007.7 |
| 20260506223052 | 45 | 348 | 0.0 | 0.0 | 0.00 | 0.59 | 0.50 | 93 | 1007.6 |
| 20260506221554 | 45 | 348 | 0.0 | 1.0 | 0.00 | 0.59 | 0.50 | 92 | 1007.4 |
| 20260506220051 | 46 | 5 | 0.0 | 1.0 | 0.00 | 0.59 | 0.50 | 92 | 1007.7 |
| 20260506214606 | 45 | 5 | 0.0 | 2.0 | 0.00 | 0.59 | 0.50 | 93 | 1007.4 |
| 20260506213049 | 45 | 262 | 0.0 | 1.0 | 0.00 | 0.59 | 0.50 | 94 | 1007.8 |
| 20260506211549 | 45 | 247 | 0.0 | 1.0 | 0.00 | 0.59 | 0.50 | 94 | 1007.7 |
| 20260506210052 | 45 | 331 | 0.0 | 0.0 | 0.00 | 0.59 | 0.50 | 94 | 1007.8 |
| 20260506204551 | 45 | 343 | 1.0 | 3.0 | 0.00 | 0.59 | 0.50 | 95 | 1007.6 |
| 20260506203051 | 45 | 310 | 0.0 | 2.0 | 0.00 | 0.59 | 0.50 | 96 | 1007.7 |
| 20260506201549 | 45 | 52 | 0.0 | 2.0 | 0.00 | 0.59 | 0.50 | 96 | 1007.7 |
| 20260506200046 | 44 | 53 | 0.0 | 0.0 | 0.00 | 0.59 | 0.50 | 96 | 1007.5 |
| 20260506194558 | 45 | 53 | 0.0 | 0.0 | 0.00 | 0.60 | 0.50 | 96 | 1007.7 |
| 20260506193044 | 45 | 53 | 0.0 | 2.0 | 0.01 | 0.60 | 0.50 | 96 | 1007.7 |
| 20260506191544 | 45 | 30 | 0.0 | 2.0 | 0.02 | 0.60 | 0.50 | 99 | 1007.6 |
| 20260506190044 | 44 | 70 | 0.0 | 3.0 | 0.02 | 0.60 | 0.50 | 97 | 1007.7 |
| 20260506184540 | 44 | 5 | 0.0 | 1.0 | 0.02 | 0.60 | 0.50 | 99 | 1007.9 |
| 20260506183036 | 44 | 36 | 0.0 | 3.0 | 0.01 | 0.59 | 0.49 | 98 | 1008.1 |
| 20260506181537 | 44 | 355 | 0.0 | 2.0 | 0.02 | 0.57 | 0.48 | 99 | 1008.3 |
| 20260506180042 | 43 | 19 | 0.0 | 2.0 | 0.03 | 0.57 | 0.48 | 99 | 1008.5 |
| 20260506174536 | 43 | 344 | 0.0 | 3.0 | 0.04 | 0.61 | 0.48 | 99 | 1008.3 |
| 20260506173033 | 43 | 318 | 2.0 | 4.0 | 0.04 | 0.60 | 0.47 | 99 | 1008.5 |
| 20260506171549 | 43 | 5 | 0.0 | 3.0 | 0.05 | 0.59 | 0.46 | 99 | 1008.6 |
| 20260506170038 | 44 | 355 | 0.0 | 3.0 | 0.05 | 0.57 | 0.45 | 99 | 1008.9 |
| 20260506164534 | 43 | 329 | 0.0 | 3.0 | 0.06 | 0.56 | 0.44 | 99 | 1009.0 |
| 20260506163034 | 43 | 355 | 0.0 | 0.0 | 0.07 | 0.56 | 0.43 | 99 | 1009.1 |
| 20260506161529 | 43 | 342 | 0.0 | 0.0 | 0.07 | 0.54 | 0.41 | 99 | 1009.2 |
| 20260506160030 | 43 | 346 | 0.0 | 0.0 | 0.08 | 0.53 | 0.40 | 99 | 1009.2 |
| 20260506154527 | 43 | 341 | 0.0 | 0.0 | 0.08 | 0.51 | 0.38 | 99 | 1009.4 |
| 20260506153026 | 43 | 334 | 0.0 | 3.0 | 0.08 | 0.49 | 0.36 | 99 | 1009.5 |
| 20260506151532 | 43 | 327 | 0.0 | 1.0 | 0.07 | 0.47 | 0.34 | 99 | 1009.5 |
| 20260506150024 | 42 | 327 | 0.0 | 0.0 | 0.06 | 0.45 | 0.32 | 99 | 1009.8 |
| 20260506144523 | 43 | 327 | 0.0 | 0.0 | 0.06 | 0.43 | 0.30 | 99 | 1009.7 |
| 20260506143021 | 42 | 327 | 0.0 | 0.0 | 0.04 | 0.41 | 0.28 | 99 | 1009.6 |
| 20260506141520 | 42 | 327 | 0.0 | 1.0 | 0.05 | 0.40 | 0.27 | 99 | 1009.7 |
| 20260506140026 | 42 | 327 | 0.0 | 2.0 | 0.06 | 0.39 | 0.26 | 99 | 1009.7 |
| 20260506134518 | 42 | 248 | 0.0 | 0.0 | 0.05 | 0.40 | 0.24 | 99 | 1009.7 |
| 20260506133031 | 42 | 248 | 0.0 | 1.0 | 0.06 | 0.39 | 0.23 | 100 | 1009.7 |
| 20260506131520 | 42 | 240 | 0.0 | 1.0 | 0.05 | 0.37 | 0.21 | 99 | 1009.8 |
| 20260506130015 | 42 | 239 | 0.0 | 0.0 | 0.05 | 0.36 | 0.20 | 99 | 1009.8 |
| 20260506124513 | 42 | 276 | 0.0 | 1.0 | 0.05 | 0.37 | 0.18 | 99 | 1009.9 |
| 20260506123013 | 42 | 276 | 0.0 | 0.0 | 0.05 | 0.36 | 0.17 | 99 | 1009.5 |
| 20260506121509 | 43 | 276 | 0.0 | 1.0 | 0.05 | 0.35 | 0.16 | 99 | 1009.4 |
| 20260506120007 | 43 | 276 | 0.0 | 0.0 | 0.05 | 0.34 | 0.15 | 99 | 1009.6 |
| 20260506114505 | 43 | 276 | 0.0 | 2.0 | 0.04 | 0.32 | 0.13 | 99 | 1009.8 |
| 20260506113001 | 44 | 249 | 0.0 | 3.0 | 0.04 | 0.31 | 0.12 | 99 | 1010.1 |
| 20260506111607 | 44 | 267 | 0.0 | 1.0 | 0.03 | 0.30 | 0.11 | 99 | 1009.3 |
| 20260506110058 | 44 | 267 | 0.0 | 0.0 | 0.02 | 0.28 | 0.10 | 99 | 1009.2 |
| 20260506104600 | 44 | 267 | 0.0 | 3.0 | 0.01 | 0.28 | 0.09 | 99 | 1009.5 |
| 20260506103101 | 44 | 306 | 0.0 | 1.0 | 0.00 | 0.27 | 0.08 | 98 | 1009.3 |
| 20260506101556 | 44 | 286 | 0.0 | 2.0 | 0.00 | 0.27 | 0.08 | 99 | 1009.6 |
| 20260506100059 | 44 | 151 | 0.0 | 1.0 | 0.00 | 0.27 | 0.08 | 99 | 1009.4 |
| 20260506094553 | 44 | 184 | 0.0 | 4.0 | 0.00 | 0.27 | 0.08 | 99 | 1009.1 |
| 20260506093051 | 44 | 215 | 0.0 | 3.0 | 0.00 | 0.27 | 0.08 | 99 | 1008.9 |
| 20260506091552 | 45 | 109 | 0.0 | 2.0 | 0.00 | 0.27 | 0.08 | 99 | 1008.6 |
| 20260506090050 | 45 | 190 | 0.0 | 2.0 | 0.00 | 0.27 | 0.08 | 99 | 1009.2 |
| 20260506084553 | 45 | 180 | 0.0 | 4.0 | 0.00 | 0.27 | 0.08 | 99 | 1009.1 |
| 20260506083051 | 45 | 186 | 0.0 | 3.0 | 0.00 | 0.27 | 0.08 | 99 | 1008.9 |
| 20260506081549 | 45 | 186 | 0.0 | 2.0 | 0.00 | 0.27 | 0.08 | 99 | 1008.8 |
| 20260506073047 | 45 | 193 | 0.0 | 3.0 | 0.02 | 0.27 | 0.08 | 98 | 1008.6 |
| 20260506071542 | 45 | 202 | 0.0 | 4.0 | 0.02 | 0.27 | 0.08 | 97 | 1008.6 |
| 20260506061536 | 45 | 163 | 0.0 | 4.0 | 0.00 | 0.25 | 0.06 | 97 | 1008.3 |
| 20260506044522 | 47 | 223 | 0.0 | 3.0 | 0.06 | 0.23 | 0.04 | 98 | 1008.0 |
| 20260506043020 | 48 | 196 | 0.0 | 5.0 | 0.06 | 0.22 | 0.03 | 97 | 1007.6 |
| 20260506041517 | 48 | 301 | 2.0 | 7.0 | 0.06 | 0.21 | 0.02 | 96 | 1007.4 |